logo
Search for airport 
image banner adimage banner adimage banner ad
image banner ad

MMMCB - Manjarrez De Caborca

Located in Caborca, Mexico

ICAO - , IATA -

Data provided by Airmate  

General information

Coordinates: N30°42'6" W112°13'27"
Elevation is 836 feet MSL.
Magnetic variation is 9° East
View others Airports in Sonora

Operational data

Special qualification required
Current time UTC:
Current local time:
Weather at : - ( 0 km )
METAR: LWSK 180820Z VRB04KT 9999 FEW036 11/04 Q1008 NOSIG
View NOTAMs / SUP AIP / TFR affecting this airport [VIEW]
Communications frequencies: [VIEW]

Runways:

RWY identifierQFULength (ft)Width (ft)SurfaceLDA (ft)
25258°6822199DIRT
0778°6822199DIRT

Airport contact information

Address: Caborca Mexico

Satellite view of MMMCB